Yahata Maru — JL6477 — position and weather

sailwx.info

Track history (hours):
 
Tides and Currents Weather Stations Pressure Air Temp Water Temp Dewpoint Dewpoint Depression Visibility Wind Speed Wind Dir Waves Ship Positions

Yahata Maru

Last reported at 2014-Oct-30 04:20 UTC. Time now 2014-Oct-31 09:53 UTC.
Position N 35°07' E 139°41'.

Length 149 m; draft 4.7 m.

Type: Other ship. MMSI: 431400594.

Date/timePositionNaut miles runAvg speedWind from/ knotsBaromVisibWave heightAir tempDewpointWater temp
2014-Oct-30 04:20N 35°07' E 139°41'810.2
2014-Oct-30 03:33N 35°13' E 139°46'10 9.9
2014-Oct-30 02:33N 35°23' E 139°42'5 5.1
2014-Oct-30 01:31N 35°28' E 139°43'0 0.0
2014-Oct-30 00:31N 35°28' E 139°43'0 0.1
2014-Oct-29 23:33N 35°28' E 139°43'5 5.3
2014-Oct-29 22:33N 35°28' E 139°49'9 8.9
2014-Oct-29 21:31N 35°33' E 139°59'2 0.1
2014-Oct-29 03:18N 35°31' E 139°57'7 9.0
2014-Oct-29 02:33N 35°28' E 139°50'9 8.7
2014-Oct-29 01:33N 35°23' E 139°41'2 1.8
2014-Oct-29 00:32N 35°23' E 139°38'0 0.0
2014-Oct-28 23:32N 35°23' E 139°38'0 0.0
2014-Oct-28 22:33N 35°23' E 139°38'5 4.6
2014-Oct-28 21:32N 35°22' E 139°44'0 0.0
2014-Oct-28 20:32N 35°22' E 139°44'0 0.0
2014-Oct-28 19:32N 35°22' E 139°44'1 0.8
2014-Oct-28 18:33N 35°21' E 139°43'9 8.7
2014-Oct-28 17:33N 35°13' E 139°47'  
2014-Oct-25 02:33N 34°35' E 134°54'10 9.6
2014-Oct-25 01:33N 34°35' E 135°06'10 9.8
2014-Oct-25 00:33N 34°38' E 135°17'6 5.8
2014-Oct-24 23:33N 34°43' E 135°21'0 0.0
2014-Oct-24 22:29N 34°43' E 135°21'0 0.0
2014-Oct-24 21:29N 34°43' E 135°21'0 0.0
2014-Oct-24 20:29N 34°43' E 135°21'0 0.0
2014-Oct-24 19:29N 34°43' E 135°21'0 0.0
2014-Oct-24 18:29N 34°43' E 135°21'0 0.0
2014-Oct-24 17:29N 34°43' E 135°21'0 0.0
2014-Oct-24 16:29N 34°43' E 135°21'0 0.0
2014-Oct-24 15:29N 34°43' E 135°21'0 0.0
2014-Oct-24 14:23N 34°43' E 135°21'0 0.0
2014-Oct-24 13:29N 34°43' E 135°21'1 1.6
2014-Oct-24 12:33N 34°42' E 135°20'5 5.2
2014-Oct-24 11:33N 34°37' E 135°20'5 3.2
2014-Oct-24 10:03N 34°35' E 135°26'0 0.0
2014-Oct-24 09:33N 34°35' E 135°26'0 0.0
2014-Oct-24 08:34N 34°35' E 135°26'4 3.7
2014-Oct-24 07:31N 34°36' E 135°21'2 1.4
2014-Oct-24 06:23N 34°35' E 135°19'0 0.0
2014-Oct-24 05:23N 34°35' E 135°19'0 0.0
2014-Oct-24 04:23N 34°35' E 135°19'0 0.1
2014-Oct-24 03:29N 34°35' E 135°19'0 0.0
2014-Oct-24 01:17N 34°35' E 135°19'0 0.0
2014-Oct-24 00:17N 34°35' E 135°19'3 4.5
2014-Oct-23 23:33N 34°34' E 135°15'10 9.6
2014-Oct-23 22:32N 34°26' E 135°09'1010.4
2014-Oct-23 21:33N 34°19' E 134°60'1010.3
2014-Oct-23 20:33N 34°08' E 135°00'238 6.1
2014-Oct-22 05:25N 35°06' E 139°41'8 9.8
2014-Oct-22 04:33N 35°14' E 139°46'9 8.8
2014-Oct-22 03:33N 35°22' E 139°42'6 6.3
2014-Oct-22 02:32N 35°28' E 139°43'0 0.0
2014-Oct-22 01:32N 35°28' E 139°43'0 0.0
2014-Oct-22 00:32N 35°28' E 139°43'0 0.0
2014-Oct-21 23:34N 35°28' E 139°43'4 4.5
2014-Oct-21 22:33N 35°28' E 139°48'10 9.4
2014-Oct-21 21:32N 35°33' E 139°58'1 0.1
2014-Oct-21 08:06N 35°34' E 139°59'1 0.1
2014-Oct-20 20:27N 35°33' E 139°58'8 8.9
2014-Oct-20 19:34N 35°28' E 139°51'9 9.0
2014-Oct-20 18:34N 35°21' E 139°45'9 8.5
2014-Oct-20 17:33N 35°12' E 139°47'  
Track history (hours):
 
Tides and Currents Weather Stations Pressure Air Temp Water Temp Dewpoint Dewpoint Depression Visibility Wind Speed Wind Dir Waves Ship Positions

Yahata Maru

Last reported at 2014-Oct-30 04:20 UTC. Time now 2014-Oct-31 09:53 UTC.
Position N 35°07' E 139°41'.

Length 149 m; draft 4.7 m.

Type: Other ship. MMSI: 431400594.

Date/timePositionNaut miles runAvg speedWind from/ knotsBaromVisibWave heightAir tempDewpointWater temp
2014-Oct-30 04:20N 35°07' E 139°41'810.2
2014-Oct-30 03:33N 35°13' E 139°46'10 9.9
2014-Oct-30 02:33N 35°23' E 139°42'5 5.1
2014-Oct-30 01:31N 35°28' E 139°43'0 0.0
2014-Oct-30 00:31N 35°28' E 139°43'0 0.1
2014-Oct-29 23:33N 35°28' E 139°43'5 5.3
2014-Oct-29 22:33N 35°28' E 139°49'9 8.9
2014-Oct-29 21:31N 35°33' E 139°59'2 0.1
2014-Oct-29 03:18N 35°31' E 139°57'7 9.0
2014-Oct-29 02:33N 35°28' E 139°50'9 8.7
2014-Oct-29 01:33N 35°23' E 139°41'2 1.8
2014-Oct-29 00:32N 35°23' E 139°38'0 0.0
2014-Oct-28 23:32N 35°23' E 139°38'0 0.0
2014-Oct-28 22:33N 35°23' E 139°38'5 4.6
2014-Oct-28 21:32N 35°22' E 139°44'0 0.0
2014-Oct-28 20:32N 35°22' E 139°44'0 0.0
2014-Oct-28 19:32N 35°22' E 139°44'1 0.8
2014-Oct-28 18:33N 35°21' E 139°43'9 8.7
2014-Oct-28 17:33N 35°13' E 139°47'  
2014-Oct-25 02:33N 34°35' E 134°54'10 9.6
2014-Oct-25 01:33N 34°35' E 135°06'10 9.8
2014-Oct-25 00:33N 34°38' E 135°17'6 5.8
2014-Oct-24 23:33N 34°43' E 135°21'0 0.0
2014-Oct-24 22:29N 34°43' E 135°21'0 0.0
2014-Oct-24 21:29N 34°43' E 135°21'0 0.0
2014-Oct-24 20:29N 34°43' E 135°21'0 0.0
2014-Oct-24 19:29N 34°43' E 135°21'0 0.0
2014-Oct-24 18:29N 34°43' E 135°21'0 0.0
2014-Oct-24 17:29N 34°43' E 135°21'0 0.0
2014-Oct-24 16:29N 34°43' E 135°21'0 0.0
2014-Oct-24 15:29N 34°43' E 135°21'0 0.0
2014-Oct-24 14:23N 34°43' E 135°21'0 0.0
2014-Oct-24 13:29N 34°43' E 135°21'1 1.6
2014-Oct-24 12:33N 34°42' E 135°20'5 5.2
2014-Oct-24 11:33N 34°37' E 135°20'5 3.2
2014-Oct-24 10:03N 34°35' E 135°26'0 0.0
2014-Oct-24 09:33N 34°35' E 135°26'0 0.0
2014-Oct-24 08:34N 34°35' E 135°26'4 3.7
2014-Oct-24 07:31N 34°36' E 135°21'2 1.4
2014-Oct-24 06:23N 34°35' E 135°19'0 0.0
2014-Oct-24 05:23N 34°35' E 135°19'0 0.0
2014-Oct-24 04:23N 34°35' E 135°19'0 0.1
2014-Oct-24 03:29N 34°35' E 135°19'0 0.0
2014-Oct-24 01:17N 34°35' E 135°19'0 0.0
2014-Oct-24 00:17N 34°35' E 135°19'3 4.5
2014-Oct-23 23:33N 34°34' E 135°15'10 9.6
2014-Oct-23 22:32N 34°26' E 135°09'1010.4
2014-Oct-23 21:33N 34°19' E 134°60'1010.3
2014-Oct-23 20:33N 34°08' E 135°00'238 6.1
2014-Oct-22 05:25N 35°06' E 139°41'8 9.8
2014-Oct-22 04:33N 35°14' E 139°46'9 8.8
2014-Oct-22 03:33N 35°22' E 139°42'6 6.3
2014-Oct-22 02:32N 35°28' E 139°43'0 0.0
2014-Oct-22 01:32N 35°28' E 139°43'0 0.0
2014-Oct-22 00:32N 35°28' E 139°43'0 0.0
2014-Oct-21 23:34N 35°28' E 139°43'4 4.5
2014-Oct-21 22:33N 35°28' E 139°48'10 9.4
2014-Oct-21 21:32N 35°33' E 139°58'1 0.1
2014-Oct-21 08:06N 35°34' E 139°59'1 0.1
2014-Oct-20 20:27N 35°33' E 139°58'8 8.9
2014-Oct-20 19:34N 35°28' E 139°51'9 9.0
2014-Oct-20 18:34N 35°21' E 139°45'9 8.5
2014-Oct-20 17:33N 35°12' E 139°47'  

Dump ship's entire track history